createdAt,value
2019-05-12T00:00:21.141Z,68.41
2019-05-12T00:02:49.696Z,68.54
2019-05-12T00:05:18.847Z,68.70
2019-05-12T00:07:48.739Z,68.85
2019-05-12T00:10:18.209Z,69.12
2019-05-12T00:12:48.404Z,69.43
2019-05-12T00:15:19.434Z,69.56
2019-05-12T00:17:48.656Z,69.80
2019-05-12T00:20:18.228Z,69.85
2019-05-12T00:22:48.997Z,69.76
2019-05-12T00:25:18.221Z,69.76
2019-05-12T00:27:48.725Z,69.86
2019-05-12T00:30:35.435Z,70.06
2019-05-12T00:33:04.954Z,70.30
2019-05-12T00:35:33.531Z,70.59
2019-05-12T00:38:02.129Z,70.76
2019-05-12T00:40:30.631Z,71.01
2019-05-12T00:42:59.201Z,71.20
2019-05-12T00:45:29.174Z,71.39
2019-05-12T00:47:58.530Z,71.46
2019-05-12T00:50:28.870Z,71.50
2019-05-12T00:52:58.237Z,71.56
2019-05-12T00:55:28.886Z,71.60
2019-05-12T00:57:58.242Z,71.60
2019-05-12T01:00:29.200Z,71.58
2019-05-12T01:02:58.275Z,71.56
2019-05-12T01:05:29.392Z,71.66
2019-05-12T01:07:58.280Z,71.62
2019-05-12T01:10:28.563Z,71.66
2019-05-12T01:12:58.142Z,71.60
2019-05-12T01:15:28.647Z,71.58
2019-05-12T01:17:58.504Z,71.54
2019-05-12T01:20:28.398Z,71.50
2019-05-12T01:22:57.915Z,71.59
2019-05-12T01:25:29.080Z,71.60
2019-05-12T01:27:59.006Z,71.63
2019-05-12T01:30:28.406Z,71.42
2019-05-12T01:32:58.093Z,71.52
2019-05-12T01:35:28.075Z,71.63
2019-05-12T01:38:01.169Z,71.62
2019-05-12T01:40:30.767Z,71.59
2019-05-12T01:42:59.313Z,71.59
2019-05-12T01:45:28.827Z,71.66
2019-05-12T01:47:59.220Z,71.72
2019-05-12T01:50:28.526Z,71.81
2019-05-12T01:52:58.707Z,71.86
2019-05-12T01:55:28.316Z,71.91
2019-05-12T01:57:57.792Z,72.01
2019-05-12T02:00:28.365Z,71.98
2019-05-12T02:02:58.456Z,72.08
2019-05-12T02:05:28.010Z,72.03
2019-05-12T02:07:58.702Z,72.01
2019-05-12T02:10:28.687Z,71.91
2019-05-12T02:12:59.489Z,71.87
2019-05-12T02:15:28.105Z,71.85
2019-05-12T02:17:58.931Z,71.81
2019-05-12T02:20:28.722Z,71.86
2019-05-12T02:22:58.349Z,71.92
2019-05-12T02:25:28.630Z,71.92
2019-05-12T02:27:58.400Z,72.01
2019-05-12T02:30:30.483Z,71.98
2019-05-12T02:32:59.171Z,71.89
2019-05-12T02:35:27.572Z,71.90
2019-05-12T02:37:56.077Z,71.96
2019-05-12T02:40:26.093Z,71.91
2019-05-12T02:42:56.401Z,71.87
2019-05-12T02:45:26.063Z,71.95
2019-05-12T02:47:54.749Z,71.89
2019-05-12T02:50:35.871Z,71.87
2019-05-12T02:53:05.494Z,71.86
2019-05-12T02:55:35.054Z,71.91
2019-05-12T02:58:05.500Z,71.93
2019-05-12T03:00:35.923Z,72.01
2019-05-12T03:03:06.369Z,72.11
2019-05-12T03:05:36.387Z,72.15
2019-05-12T03:08:05.543Z,72.20
2019-05-12T03:10:35.964Z,72.31
2019-05-12T03:13:05.222Z,72.54
2019-05-12T03:15:36.609Z,72.55
2019-05-12T03:18:06.168Z,72.64
2019-05-12T03:20:39.277Z,72.50
2019-05-12T03:23:07.686Z,72.21
2019-05-12T03:25:37.069Z,71.99
2019-05-12T03:28:09.615Z,71.95
2019-05-12T03:30:40.844Z,71.86
2019-05-12T03:33:11.383Z,71.85
2019-05-12T03:35:43.940Z,71.81
2019-05-12T03:38:10.272Z,71.84
2019-05-12T03:40:39.110Z,71.94
2019-05-12T03:43:08.860Z,72.02
2019-05-12T03:45:39.242Z,72.23
2019-05-12T03:48:07.805Z,72.40
2019-05-12T03:50:39.321Z,72.58
2019-05-12T03:53:10.921Z,72.60
2019-05-12T03:55:45.535Z,72.48
2019-05-12T03:58:14.338Z,72.53
2019-05-12T04:00:46.307Z,72.51
2019-05-12T04:03:17.512Z,72.42
2019-05-12T04:05:47.534Z,72.34
2019-05-12T04:08:17.190Z,72.31
2019-05-12T04:10:46.074Z,72.21
2019-05-12T04:13:15.374Z,72.23
2019-05-12T04:15:45.497Z,72.23
2019-05-12T04:18:15.845Z,72.29
2019-05-12T04:20:45.183Z,72.12
2019-05-12T04:23:15.393Z,72.10
2019-05-12T04:25:52.081Z,72.05
2019-05-12T04:28:15.189Z,72.17
2019-05-12T04:30:44.484Z,72.18
2019-05-12T04:33:15.438Z,72.22
2019-05-12T04:35:45.110Z,72.32
2019-05-12T04:38:14.832Z,72.34
2019-05-12T04:40:45.042Z,72.31
2019-05-12T04:43:14.770Z,72.37
2019-05-12T04:45:45.147Z,72.51
2019-05-12T04:48:15.682Z,72.64
2019-05-12T04:50:45.266Z,72.88
2019-05-12T04:53:14.617Z,72.95
2019-05-12T04:55:44.570Z,73.02
2019-05-12T04:58:15.639Z,73.07
2019-05-12T05:00:44.788Z,73.15
2019-05-12T05:03:14.407Z,73.30
2019-05-12T05:05:44.337Z,73.38
2019-05-12T05:08:14.500Z,73.50
2019-05-12T05:10:44.826Z,73.60
2019-05-12T05:13:14.955Z,73.72
2019-05-12T05:15:44.561Z,73.88
2019-05-12T05:18:13.557Z,73.99
2019-05-12T05:20:43.842Z,74.07
2019-05-12T05:23:14.178Z,74.19
2019-05-12T05:25:43.442Z,74.27
2019-05-12T05:28:14.693Z,74.35
2019-05-12T05:30:44.144Z,74.39
2019-05-12T05:33:14.502Z,74.22
2019-05-12T05:35:43.692Z,74.18
2019-05-12T05:38:18.659Z,74.07
2019-05-12T05:40:43.566Z,73.95
2019-05-12T05:43:16.470Z,73.44
2019-05-12T05:45:43.832Z,73.00
2019-05-12T05:48:13.577Z,72.89
2019-05-12T05:50:43.858Z,72.49
2019-05-12T05:53:17.917Z,72.23
2019-05-12T05:55:44.260Z,71.69
2019-05-12T05:58:15.235Z,71.09
2019-05-12T06:00:43.592Z,70.70
2019-05-12T06:03:15.005Z,70.05
2019-05-12T06:05:43.367Z,69.49
2019-05-12T06:08:18.592Z,69.29
2019-05-12T06:10:43.485Z,69.11
2019-05-12T06:13:14.388Z,68.92
2019-05-12T06:15:44.581Z,68.61
2019-05-12T06:18:14.665Z,68.37
2019-05-12T06:20:45.308Z,68.27
2019-05-12T06:23:15.052Z,67.92
2019-05-12T06:25:51.338Z,67.48
2019-05-12T06:28:15.266Z,67.62
2019-05-12T06:30:49.838Z,67.58
2019-05-12T06:33:22.672Z,67.41
2019-05-12T06:35:54.235Z,67.41
2019-05-12T06:38:25.859Z,67.66
2019-05-12T06:40:56.137Z,67.52
2019-05-12T06:43:29.222Z,67.56
2019-05-12T06:46:00.239Z,66.97
2019-05-12T06:48:30.287Z,66.67
2019-05-12T06:51:03.895Z,66.06
2019-05-12T06:53:33.623Z,65.85
2019-05-12T06:56:04.457Z,66.21
2019-05-12T06:58:34.419Z,65.93
2019-05-12T07:01:10.984Z,65.23
2019-05-12T07:03:37.299Z,64.84
2019-05-12T07:06:09.301Z,64.60
2019-05-12T07:08:38.655Z,64.45
2019-05-12T07:11:07.492Z,63.71
2019-05-12T07:13:39.361Z,63.66
2019-05-12T07:16:19.332Z,63.08
2019-05-12T07:18:46.674Z,62.83
2019-05-12T07:21:19.682Z,62.45
2019-05-12T07:23:45.577Z,62.29
2019-05-12T07:26:19.427Z,62.46
2019-05-12T07:28:45.957Z,62.03
2019-05-12T07:31:17.808Z,61.57
2019-05-12T07:33:46.294Z,60.85
2019-05-12T07:36:19.507Z,60.46
2019-05-12T07:38:48.303Z,60.51
2019-05-12T07:41:19.184Z,60.65
2019-05-12T07:43:50.609Z,60.47
2019-05-12T07:46:29.521Z,60.11
2019-05-12T07:48:58.226Z,60.09
2019-05-12T07:51:30.518Z,59.84
2019-05-12T07:53:58.956Z,59.31
2019-05-12T07:56:32.730Z,58.94
2019-05-12T07:59:00.937Z,58.84
2019-05-12T08:01:29.437Z,58.88
2019-05-12T08:04:01.191Z,58.75
2019-05-12T08:06:32.558Z,57.79
2019-05-12T08:08:59.169Z,57.48
2019-05-12T08:11:28.783Z,56.85
2019-05-12T08:13:58.023Z,56.82
2019-05-12T08:16:32.190Z,56.55
2019-05-12T08:18:58.830Z,56.28
2019-05-12T08:21:27.320Z,56.00
2019-05-12T08:23:55.912Z,55.89
2019-05-12T08:26:24.625Z,55.54
2019-05-12T08:28:53.689Z,55.22
2019-05-12T08:31:23.544Z,54.40
2019-05-12T08:33:50.868Z,54.33
2019-05-12T08:36:19.143Z,54.80
2019-05-12T08:38:48.522Z,54.33
2019-05-12T08:41:16.334Z,54.72
2019-05-12T08:43:46.881Z,53.77
2019-05-12T08:46:15.591Z,54.34
2019-05-12T08:48:44.628Z,54.03
2019-05-12T08:51:14.628Z,53.43
2019-05-12T08:53:43.920Z,53.78
2019-05-12T08:56:18.176Z,52.94
2019-05-12T08:58:50.458Z,53.60
2019-05-12T09:01:13.667Z,52.74
2019-05-12T09:03:44.335Z,53.57
2019-05-12T09:06:17.893Z,52.48
2019-05-12T09:08:44.803Z,51.44
2019-05-12T09:11:13.924Z,52.04
2019-05-12T09:13:43.582Z,52.96
2019-05-12T09:16:13.796Z,51.25
2019-05-12T09:18:43.699Z,50.72
2019-05-12T09:21:13.874Z,50.54
2019-05-12T09:23:43.328Z,50.57
2019-05-12T09:26:10.612Z,51.39
2019-05-12T09:28:49.228Z,51.96
2019-05-12T09:31:07.931Z,51.05
2019-05-12T09:33:37.986Z,51.21
2019-05-12T09:36:05.768Z,51.88
2019-05-12T09:38:33.494Z,50.09
2019-05-12T09:41:02.559Z,49.23
2019-05-12T09:43:34.352Z,47.76
2019-05-12T09:46:04.227Z,47.92
2019-05-12T09:48:33.558Z,48.33
2019-05-12T09:51:02.688Z,47.89
2019-05-12T09:53:30.503Z,49.04
2019-05-12T09:55:58.624Z,49.41
2019-05-12T09:58:27.971Z,49.80
2019-05-12T10:00:56.030Z,49.05
2019-05-12T10:03:30.708Z,47.61
2019-05-12T10:05:55.871Z,46.87
2019-05-12T10:08:24.274Z,46.73
2019-05-12T10:10:53.599Z,46.18
2019-05-12T10:13:28.242Z,46.75
2019-05-12T10:15:58.663Z,47.21
2019-05-12T10:18:26.453Z,45.19
2019-05-12T10:20:57.006Z,42.78
2019-05-12T10:23:27.431Z,41.92
2019-05-12T10:25:54.422Z,42.50
2019-05-12T10:28:23.787Z,43.74
2019-05-12T10:30:56.912Z,43.84
2019-05-12T10:33:28.986Z,42.78
2019-05-12T10:35:59.312Z,42.73
2019-05-12T10:38:26.655Z,41.78
2019-05-12T10:40:55.699Z,40.40
2019-05-12T10:43:23.702Z,41.48
2019-05-12T10:45:53.766Z,42.06
2019-05-12T10:48:23.387Z,39.71
2019-05-12T10:50:50.558Z,38.11
2019-05-12T10:53:18.342Z,38.95
2019-05-12T10:55:46.197Z,38.67
2019-05-12T10:58:14.773Z,38.57
2019-05-12T11:00:47.308Z,38.34
2019-05-12T11:03:15.656Z,38.37
2019-05-12T11:05:45.142Z,37.88
2019-05-12T11:08:14.457Z,36.54
2019-05-12T11:10:50.408Z,37.09
2019-05-12T11:13:18.129Z,36.52
2019-05-12T11:15:49.555Z,37.34
2019-05-12T11:18:20.490Z,36.25
2019-05-12T11:20:49.613Z,36.93
2019-05-12T11:23:19.645Z,36.76
2019-05-12T11:25:50.379Z,38.28
2019-05-12T11:28:24.504Z,38.06
2019-05-12T11:30:48.331Z,36.95
2019-05-12T11:33:17.278Z,37.51
2019-05-12T11:35:48.487Z,38.39
2019-05-12T11:38:17.523Z,39.00
2019-05-12T11:40:45.322Z,37.37
2019-05-12T11:43:15.766Z,37.07
2019-05-12T11:45:44.169Z,36.11
2019-05-12T11:48:14.716Z,37.45
2019-05-12T11:50:47.902Z,38.59
2019-05-12T11:53:15.872Z,37.79
2019-05-12T11:55:46.494Z,36.62
2019-05-12T11:58:17.474Z,37.45
2019-05-12T12:00:49.417Z,38.45
2019-05-12T12:03:20.428Z,35.73
2019-05-12T12:05:50.760Z,36.03
2019-05-12T12:08:26.266Z,36.68
2019-05-12T12:10:54.129Z,34.55
2019-05-12T12:13:25.574Z,34.31
2019-05-12T12:15:53.211Z,35.06
2019-05-12T12:18:25.924Z,33.32
2019-05-12T12:21:02.741Z,33.36
2019-05-12T12:23:25.843Z,35.35
2019-05-12T12:25:54.634Z,35.76
2019-05-12T12:28:24.192Z,34.16
2019-05-12T12:30:56.922Z,31.03
2019-05-12T12:33:23.407Z,31.94
2019-05-12T12:35:56.637Z,33.77
2019-05-12T12:38:20.359Z,34.42
2019-05-12T12:40:48.110Z,34.81
2019-05-12T12:43:18.279Z,35.82
2019-05-12T12:46:10.738Z,35.71
2019-05-12T12:48:38.337Z,32.93
2019-05-12T12:51:06.102Z,33.62
2019-05-12T12:53:36.587Z,34.44
2019-05-12T12:56:04.540Z,33.58
2019-05-12T12:58:34.651Z,34.28
2019-05-12T13:01:03.779Z,35.56
2019-05-12T13:03:34.449Z,35.89
2019-05-12T13:06:04.493Z,33.80
2019-05-12T13:08:34.085Z,33.35
2019-05-12T13:11:01.245Z,33.09
2019-05-12T13:13:29.022Z,34.09
2019-05-12T13:15:57.256Z,33.81
2019-05-12T13:18:32.377Z,33.67
2019-05-12T13:20:58.243Z,33.85
2019-05-12T13:23:37.857Z,33.63
2019-05-12T13:25:57.290Z,34.78
2019-05-12T13:28:25.976Z,36.43
2019-05-12T13:31:07.970Z,37.75
2019-05-12T13:33:24.954Z,37.33
2019-05-12T13:35:57.336Z,38.41
2019-05-12T13:38:24.825Z,38.96
2019-05-12T13:40:54.033Z,39.20
2019-05-12T13:43:23.764Z,38.85
2019-05-12T13:45:53.448Z,38.77
2019-05-12T13:48:23.732Z,38.62
2019-05-12T13:50:50.792Z,38.97
2019-05-12T13:53:18.588Z,39.75
2019-05-12T13:55:49.690Z,39.70
2019-05-12T13:58:17.587Z,39.61
2019-05-12T14:00:50.809Z,39.24
2019-05-12T14:03:14.850Z,38.94
2019-05-12T14:05:50.250Z,39.19
2019-05-12T14:08:14.653Z,39.93
2019-05-12T14:10:44.696Z,40.21
2019-05-12T14:13:15.979Z,40.00
2019-05-12T14:15:46.379Z,40.27
2019-05-12T14:18:16.457Z,40.32
2019-05-12T14:20:51.009Z,40.07
2019-05-12T14:23:15.251Z,40.22
2019-05-12T14:25:43.704Z,40.75
2019-05-12T14:28:16.283Z,40.21
2019-05-12T14:30:49.636Z,40.78
2019-05-12T14:33:11.031Z,41.21
2019-05-12T14:35:41.189Z,40.94
2019-05-12T14:38:08.227Z,40.88
2019-05-12T14:40:35.969Z,40.47
2019-05-12T14:43:03.866Z,41.12
2019-05-12T14:45:33.261Z,40.64
2019-05-12T14:48:07.420Z,40.07
2019-05-12T14:50:30.611Z,40.67
2019-05-12T14:52:59.860Z,41.49
2019-05-12T14:55:27.695Z,41.80
2019-05-12T14:57:55.491Z,41.82
2019-05-12T15:00:24.135Z,41.28
2019-05-12T15:02:53.980Z,41.35
2019-05-12T15:05:25.254Z,41.46
2019-05-12T15:07:56.510Z,41.26
2019-05-12T15:10:23.432Z,40.57
2019-05-12T15:12:51.317Z,40.13
2019-05-12T15:15:20.796Z,40.30
2019-05-12T15:17:48.646Z,39.40
2019-05-12T15:20:16.377Z,39.79
2019-05-12T15:22:51.276Z,40.00
2019-05-12T15:25:14.580Z,40.28
2019-05-12T15:27:47.645Z,40.75
2019-05-12T15:30:20.323Z,41.14
2019-05-12T15:32:42.560Z,40.89
2019-05-12T15:35:10.325Z,41.46
2019-05-12T15:37:39.728Z,41.87
2019-05-12T15:40:07.463Z,41.78
2019-05-12T15:42:35.265Z,42.10
2019-05-12T15:45:06.537Z,41.76
2019-05-12T15:47:36.255Z,40.83
2019-05-12T15:50:05.675Z,41.48
2019-05-12T15:52:38.280Z,41.20
2019-05-12T15:55:04.734Z,41.01
2019-05-12T15:57:33.484Z,40.79
2019-05-12T16:00:04.790Z,40.45
2019-05-12T16:02:33.908Z,40.48
2019-05-12T16:05:04.146Z,40.78
2019-05-12T16:07:37.901Z,40.56
2019-05-12T16:10:04.328Z,41.43
2019-05-12T16:12:31.379Z,41.33
2019-05-12T16:15:00.112Z,41.26
2019-05-12T16:17:28.128Z,41.42
2019-05-12T16:19:55.915Z,41.49
2019-05-12T16:22:23.736Z,41.76
2019-05-12T16:24:53.240Z,41.73
2019-05-12T16:27:24.993Z,41.22
2019-05-12T16:29:50.267Z,41.08
2019-05-12T16:32:26.951Z,40.91
2019-05-12T16:34:48.930Z,41.11
2019-05-12T16:37:16.878Z,41.22
2019-05-12T16:39:47.370Z,41.41
2019-05-12T16:42:14.250Z,41.75
2019-05-12T16:44:44.011Z,41.48
2019-05-12T16:47:13.507Z,41.65
2019-05-12T16:49:41.279Z,41.43
2019-05-12T16:52:09.101Z,41.07
2019-05-12T16:54:36.856Z,40.00
2019-05-12T16:57:06.502Z,39.47
2019-05-12T16:59:34.045Z,38.72
2019-05-12T17:02:05.536Z,38.14
2019-05-12T17:04:33.278Z,37.28
2019-05-12T17:07:00.600Z,36.38
2019-05-12T17:09:28.335Z,36.14
2019-05-12T17:11:56.092Z,35.92
2019-05-12T17:14:23.892Z,35.19
2019-05-12T17:16:51.637Z,35.03
2019-05-12T17:19:19.388Z,35.38
2019-05-12T17:21:49.435Z,35.03
2019-05-12T17:24:16.552Z,35.30
2019-05-12T17:26:44.290Z,35.63
2019-05-12T17:31:19.322Z,36.79
2019-05-12T17:33:47.057Z,37.35
2019-05-12T17:36:17.853Z,37.98
2019-05-12T17:38:44.309Z,37.81
2019-05-12T17:41:15.576Z,38.58
2019-05-12T17:43:52.007Z,39.18
2019-05-12T17:46:13.545Z,39.41
2019-05-12T17:48:42.904Z,40.14
2019-05-12T17:51:09.716Z,40.31
2019-05-12T17:53:37.816Z,41.06
2019-05-12T17:56:05.682Z,41.44
2019-05-12T17:58:36.703Z,41.99
2019-05-12T18:01:03.667Z,42.56
2019-05-12T18:03:31.593Z,43.00
2019-05-12T18:05:59.348Z,43.59
2019-05-12T18:08:32.753Z,43.70
2019-05-12T18:10:56.515Z,44.27
2019-05-12T18:13:27.460Z,44.51
2019-05-12T18:15:53.756Z,44.93
2019-05-12T18:18:24.277Z,45.29
2019-05-12T18:20:50.877Z,45.33
2019-05-12T18:23:19.867Z,45.68
2019-05-12T18:25:48.044Z,46.08
2019-05-12T18:28:15.800Z,46.57
2019-05-12T18:30:43.583Z,46.68
2019-05-12T18:33:13.587Z,47.01
2019-05-12T18:35:40.728Z,47.35
2019-05-12T18:38:18.090Z,47.67
2019-05-12T18:40:37.887Z,48.05
2019-05-12T18:43:05.623Z,48.28
2019-05-12T18:45:34.107Z,48.32
2019-05-12T18:48:10.165Z,48.77
2019-05-12T18:50:34.135Z,49.25
2019-05-12T18:53:01.009Z,49.45
2019-05-12T18:55:29.251Z,49.97
2019-05-12T18:57:58.221Z,50.50
2019-05-12T19:00:26.684Z,50.63
2019-05-12T19:02:54.653Z,51.32
2019-05-12T19:05:29.718Z,51.58
2019-05-12T19:07:54.152Z,52.01
2019-05-12T19:10:21.462Z,52.45
2019-05-12T19:12:51.626Z,52.79
2019-05-12T19:15:21.865Z,53.07
2019-05-12T19:17:48.051Z,53.58
2019-05-12T19:20:15.813Z,53.88
2019-05-12T19:22:49.624Z,54.33
2019-05-12T19:25:14.566Z,54.73
2019-05-12T19:27:45.691Z,55.08
2019-05-12T19:30:13.853Z,55.47
2019-05-12T19:32:41.597Z,55.79
2019-05-12T19:35:15.917Z,56.08
2019-05-12T19:37:42.322Z,56.32
2019-05-12T19:40:12.443Z,56.59
2019-05-12T19:42:38.134Z,56.99
2019-05-12T19:45:19.347Z,57.39
2019-05-12T19:47:38.417Z,57.92
2019-05-12T19:50:10.665Z,58.22
2019-05-12T19:52:35.904Z,58.63
2019-05-12T19:55:04.655Z,58.94
2019-05-12T19:57:33.523Z,58.79
2019-05-12T20:00:01.455Z,59.07
2019-05-12T20:02:29.681Z,59.27
2019-05-12T20:04:57.510Z,59.34
2019-05-12T20:07:25.282Z,59.52
2019-05-12T20:09:56.065Z,59.54
2019-05-12T20:12:24.136Z,59.70
2019-05-12T20:14:56.910Z,59.67
2019-05-12T20:17:21.240Z,59.75
2019-05-12T20:19:48.978Z,59.90
2019-05-12T20:22:16.770Z,59.52
2019-05-12T20:24:44.548Z,59.81
2019-05-12T20:27:17.156Z,59.70
2019-05-12T20:29:43.457Z,59.84
2019-05-12T20:32:13.742Z,60.03
2019-05-12T20:34:49.171Z,59.85
2019-05-12T20:37:14.247Z,59.82
2019-05-12T20:39:39.783Z,60.12
2019-05-12T20:42:07.516Z,60.15
2019-05-12T20:44:35.302Z,60.76
2019-05-12T20:47:06.316Z,60.11
2019-05-12T20:49:33.653Z,60.35
2019-05-12T20:52:04.553Z,60.56
2019-05-12T20:54:33.480Z,60.58
2019-05-12T20:57:07.817Z,60.75
2019-05-12T20:59:29.820Z,61.00
2019-05-12T21:01:57.563Z,61.02
2019-05-12T21:04:31.127Z,61.33
2019-05-12T21:06:54.709Z,61.26
2019-05-12T21:09:23.690Z,61.58
2019-05-12T21:11:51.615Z,61.40
2019-05-12T21:14:19.365Z,61.33
2019-05-12T21:16:47.110Z,61.22
2019-05-12T21:19:14.831Z,61.10
2019-05-12T21:21:44.446Z,61.24
2019-05-12T21:24:13.925Z,60.79
2019-05-12T21:26:43.865Z,61.02
2019-05-12T21:29:10.828Z,60.98
2019-05-12T21:31:38.548Z,61.22
2019-05-12T21:34:06.906Z,61.29
2019-05-12T21:36:34.757Z,61.42
2019-05-12T21:39:08.347Z,61.26
2019-05-12T21:41:34.366Z,61.31
2019-05-12T21:44:06.602Z,60.79
2019-05-12T21:46:30.899Z,60.76
2019-05-12T21:49:09.505Z,60.44
2019-05-12T21:51:28.073Z,60.18
2019-05-12T21:53:57.633Z,60.38
2019-05-12T21:56:25.185Z,60.51
2019-05-12T21:58:54.915Z,60.42
2019-05-12T22:01:23.926Z,60.56
2019-05-12T22:03:57.810Z,60.50
2019-05-12T22:06:24.116Z,60.68
2019-05-12T22:09:00.734Z,60.70
2019-05-12T22:11:23.763Z,60.86
2019-05-12T22:13:59.488Z,60.98
2019-05-12T22:16:23.661Z,61.24
2019-05-12T22:18:56.111Z,61.31
2019-05-12T22:21:21.040Z,61.76
2019-05-12T22:23:51.280Z,61.89
2019-05-12T22:26:18.187Z,62.30
2019-05-12T22:28:50.715Z,62.49
2019-05-12T22:31:15.357Z,62.70
2019-05-12T22:33:51.532Z,63.03
2019-05-12T22:36:20.790Z,63.33
2019-05-12T22:38:44.247Z,63.47
2019-05-12T22:41:13.632Z,63.67
2019-05-12T22:43:45.693Z,63.71
2019-05-12T22:46:13.219Z,63.99
2019-05-12T22:48:40.674Z,64.15
2019-05-12T22:51:17.553Z,64.40
2019-05-12T22:53:38.122Z,64.42
2019-05-12T22:56:12.233Z,64.67
2019-05-12T22:58:35.270Z,64.82
2019-05-12T23:01:05.100Z,64.89
2019-05-12T23:03:32.418Z,65.12
2019-05-12T23:06:01.684Z,65.16
2019-05-12T23:08:29.564Z,65.52
2019-05-12T23:10:57.319Z,65.59
2019-05-12T23:13:25.092Z,65.74
2019-05-12T23:15:52.830Z,66.07
2019-05-12T23:18:26.923Z,66.38
2019-05-12T23:20:50.979Z,66.40
2019-05-12T23:23:19.036Z,66.69
2019-05-12T23:25:51.918Z,67.20
2019-05-12T23:28:16.307Z,67.39
2019-05-12T23:30:48.404Z,67.36
2019-05-12T23:33:14.109Z,67.58
2019-05-12T23:35:44.213Z,67.58
2019-05-12T23:38:18.859Z,67.68
2019-05-12T23:40:43.250Z,67.85
2019-05-12T23:43:10.683Z,68.03
2019-05-12T23:45:38.422Z,68.24
2019-05-12T23:48:06.153Z,68.32
2019-05-12T23:50:33.928Z,68.55
2019-05-12T23:53:03.752Z,68.68
2019-05-12T23:55:34.722Z,69.27
2019-05-12T23:58:03.909Z,69.43
